Terminal Aerodrome Forecast
Issued by NWS

Home | Current Version | Previous Version | Text Only | Print | Product List | Glossary On
Versions: 1 2 3 4 5 6 7 8 9 10 11 12 13 14
328
FTUS42 KGSP 212334
TAFAND
TAF
KAND 212334Z 2200/2224 08005KT P6SM FEW250
     FM221400 08010KT P6SM OVC025 PROB30 2215/2221 4SM -SHRA OVC015
     FM222100 08011G19KT P6SM -SHRA OVC015=

USA.gov is the U.S. government's official web portal to all federal, state and local government web resources and services.